Airport View

Enter AWOS ICAO identifier for current METAR.

ex. KFNL

KRZL 022340Z AUTO 24016G21KT 10SM CLR 32/15 A2985 RMK AO2

2 Jun 2020 23:45

Frequency: 119.175

Phone: 219-866-7167

Other Area AWOS: KMCX - KIKK - KVPZ - KOXI

TAF KLAF 021720Z 0218/0318 24012G20KT P6SM SKC FM030100 24006KT P6SM SCT150 FM031200 25010KT P6SM SCT200 FM031600 27012G18KT P6SM SCT050 BKN200